.
WxDataArchive / Data Records for 2008-07-04
2008-07-03 July 2008 2008-07-05

Data Records for Friday, 04 July 2008

Time	Temp	Chill	HIndex	Humid	Dewpt	 Wind 	HiWind	WindDir	Rain 	Barom 
-----	----	-----	------	-----	-----	------	------	-------	-----	----- 
00:00	60.9	60.9	60.9	94	59.2	0	0	---	0.00	30.013 
00:05	60.7	60.7	60.7	94	59.0	0	0	---	0.00	30.012 
00:10	60.7	60.7	60.7	94	59.0	0	0	---	0.00	30.011 
00:15	60.5	60.5	60.5	94	58.8	0	0	---	0.00	30.010 
00:20	60.5	60.5	60.5	94	58.8	0	0	---	0.00	30.010 
00:25	60.5	60.5	60.5	94	58.8	0	0	---	0.00	30.011 
00:30	60.4	60.4	60.4	94	58.7	0	0	---	0.00	30.012 
00:35	60.2	60.2	60.2	94	58.5	0	0	---	0.00	30.012 
00:40	60.1	60.1	60.1	94	58.4	0	0	---	0.00	30.013 
00:45	60.1	60.1	60.1	95	58.7	0	0	---	0.00	30.012 
00:50	60.1	60.1	60.1	95	58.7	0	0	---	0.00	30.013 
00:55	60.1	60.1	60.1	95	58.7	0	0	---	0.00	30.012 
01:00	59.9	59.9	59.9	95	58.5	0	0	---	0.00	30.010 
01:05	59.9	59.9	59.9	95	58.5	0	0	---	0.00	30.009 
01:10	59.9	59.9	59.9	95	58.5	0	0	---	0.00	30.010 
01:15	59.9	59.9	59.9	95	58.5	0	0	---	0.00	30.011 
01:20	59.9	59.9	59.9	95	58.5	0	0	---	0.00	30.012 
01:25	59.9	59.9	59.9	95	58.5	0	0	---	0.00	30.011 
01:30	60.1	60.1	60.1	95	58.7	0	1	135	0.00	30.011 
01:35	60.1	60.1	60.1	95	58.7	0	1	135	0.00	30.009 
01:40	60.2	60.2	60.2	95	58.8	0	1	135	0.00	30.010 
01:45	60.2	60.2	60.2	95	58.8	0	1	135	0.00	30.010 
01:50	60.2	60.2	60.2	95	58.8	1	2	135	0.00	30.010 
01:55	60.2	60.2	60.2	95	58.8	0	1	135	0.00	30.010 
02:00	60.2	60.2	60.2	94	58.5	0	1	135	0.00	30.010 
02:05	60.2	60.2	60.2	94	58.5	0	2	135	0.00	30.010 
02:10	60.2	60.2	60.2	94	58.5	0	2	135	0.00	30.010 
02:15	60.4	60.4	60.4	93	58.4	0	1	135	0.00	30.009 
02:20	60.4	60.4	60.4	93	58.4	0	1	135	0.00	30.008 
02:25	60.4	60.4	60.4	92	58.1	0	1	135	0.00	30.009 
02:30	60.4	60.4	60.4	92	58.1	0	1	135	0.00	30.009 
02:35	60.4	60.4	60.4	92	58.1	0	0	---	0.00	30.009 
02:40	60.2	60.2	60.2	92	57.9	0	0	---	0.00	30.009 
02:45	60.2	60.2	60.2	92	57.9	0	0	---	0.00	30.008 
02:50	60.2	60.2	60.2	92	57.9	0	1	135	0.00	30.008 
02:55	60.2	60.2	60.2	92	57.9	0	0	---	0.00	30.006 
03:00	60.2	60.2	60.2	92	57.9	0	0	---	0.00	30.007 
03:05	60.1	60.1	60.1	92	57.8	0	1	135	0.00	30.007 
03:10	60.1	60.1	60.1	91	57.5	0	0	---	0.00	30.009 
03:15	59.9	59.9	59.9	91	57.3	0	0	---	0.00	30.008 
03:20	59.8	59.8	59.8	91	57.2	0	0	---	0.00	30.007 
03:25	59.6	59.6	59.6	91	57.0	0	0	---	0.00	30.005 
03:30	59.5	59.5	59.5	91	56.9	0	0	---	0.00	30.004 
03:35	59.3	59.3	59.3	92	57.0	0	0	---	0.00	30.003 
03:40	59.2	59.2	59.2	92	56.9	0	0	---	0.00	30.001 
03:45	59.2	59.2	59.2	92	56.9	0	0	---	0.00	30.001 
03:50	59.0	59.0	59.0	92	56.7	0	1	135	0.00	30.000 
03:55	59.0	59.0	59.0	92	56.7	0	1	135	0.00	29.998 
04:00	59.0	59.0	59.0	92	56.7	0	1	135	0.00	29.996 
04:05	59.0	59.0	59.0	92	56.7	0	1	135	0.00	29.999 
04:10	59.0	59.0	59.0	91	56.4	0	1	135	0.00	30.006 
04:15	58.9	58.9	58.9	91	56.3	0	0	---	0.00	30.009 
04:20	58.7	58.7	58.7	91	56.1	0	1	135	0.00	30.010 
04:25	58.6	58.6	58.6	91	56.0	0	0	---	0.00	30.011 
04:30	58.4	58.4	58.4	91	55.8	0	0	---	0.00	30.011 
04:35	58.3	58.3	58.3	92	56.0	0	0	---	0.00	30.012 
04:40	58.1	58.1	58.1	92	55.8	0	0	---	0.00	30.012 
04:45	58.0	58.0	58.0	92	55.7	0	0	---	0.00	30.012 
04:50	57.8	57.8	57.8	92	55.5	0	0	---	0.00	30.011 
04:55	57.8	57.8	57.8	92	55.5	0	1	135	0.00	30.011 
05:00	58.0	58.0	58.0	92	55.7	0	1	135	0.00	30.011 
05:05	57.8	57.8	57.8	93	55.8	0	0	---	0.00	30.015 
05:10	57.8	57.8	57.8	93	55.8	0	0	---	0.00	30.016 
05:15	57.8	57.8	57.8	93	55.8	0	0	---	0.00	30.018 
05:20	58.0	58.0	58.0	93	56.0	0	1	135	0.00	30.016 
05:25	58.0	58.0	58.0	93	56.0	0	0	---	0.00	30.019 
05:30	58.1	58.1	58.1	93	56.1	0	0	---	0.00	30.017 
05:35	58.1	58.1	58.1	93	56.1	0	3	135	0.00	30.015 
05:40	58.3	58.3	58.3	93	56.3	1	3	135	0.00	30.017 
05:45	58.4	58.4	58.4	92	56.1	1	2	135	0.00	30.016 
05:50	58.7	58.7	58.7	92	56.4	0	1	135	0.00	30.014 
05:55	58.7	58.7	58.7	92	56.4	0	2	135	0.00	30.014 
06:00	58.9	58.9	58.9	91	56.3	0	1	135	0.00	30.019 
06:05	58.9	58.9	58.9	91	56.3	0	0	---	0.00	30.022 
06:10	58.9	58.9	58.9	90	56.0	0	1	135	0.00	30.026 
06:15	58.9	58.9	58.9	90	56.0	0	1	135	0.00	30.027 
06:20	59.0	59.0	59.0	89	55.8	0	1	135	0.00	30.031 
06:25	59.0	59.0	59.0	89	55.8	0	0	---	0.00	30.033 
06:30	59.0	59.0	59.0	89	55.8	0	1	135	0.00	30.038 
06:35	59.0	59.0	59.0	87	55.1	0	1	135	0.00	30.039 
06:40	59.0	59.0	59.0	85	54.5	0	3	135	0.00	30.041 
06:45	59.0	59.0	59.0	83	53.8	0	2	135	0.00	30.041 
06:50	59.0	59.0	59.0	83	53.8	0	1	135	0.00	30.042 
06:55	59.0	59.0	59.0	81	53.2	0	2	135	0.00	30.042 
07:00	59.0	59.0	59.0	82	53.5	0	1	135	0.00	30.040 
07:05	58.9	58.9	58.9	81	53.1	0	3	135	0.00	30.042 
07:10	58.9	58.9	58.9	81	53.1	0	3	135	0.00	30.043 
07:15	58.9	58.9	58.9	81	53.1	0	2	135	0.00	30.044 
07:20	58.9	58.9	58.9	81	53.1	0	3	135	0.00	30.043 
07:25	58.9	58.9	58.9	81	53.1	0	2	135	0.00	30.039 
07:30	59.2	59.2	59.2	81	53.4	1	2	135	0.00	30.039 
07:35	59.3	59.3	59.3	79	52.8	1	3	112	0.00	30.039 
07:40	59.5	59.5	59.5	78	52.6	1	3	112	0.00	30.040 
07:45	59.8	59.8	59.8	78	52.9	1	3	112	0.00	30.039 
07:50	60.4	60.4	60.4	75	52.4	2	5	112	0.00	30.035 
07:55	61.2	61.2	61.2	75	53.2	1	4	112	0.00	30.035 
08:00	61.5	61.5	61.5	72	52.4	1	3	112	0.00	30.038 
08:05	61.8	61.8	61.8	73	53.0	1	5	112	0.00	30.042 
08:10	62.7	62.7	62.7	69	52.4	1	3	112	0.00	30.043 
08:15	63.1	63.1	63.1	68	52.4	1	4	112	0.00	30.043 
08:20	63.5	63.5	63.5	70	53.5	1	5	112	0.00	30.044 
08:25	64.0	64.0	64.0	67	52.8	2	6	90	0.00	30.043 
08:30	64.3	64.3	64.3	66	52.7	2	5	90	0.00	30.044 
08:35	64.8	64.8	64.8	63	51.9	2	4	90	0.00	30.044 
08:40	64.8	64.8	64.8	64	52.3	1	3	112	0.00	30.046 
08:45	64.5	64.5	64.5	67	53.3	1	4	90	0.00	30.045 
08:50	64.5	64.5	64.5	67	53.3	2	5	112	0.00	30.044 
08:55	64.3	64.3	64.3	66	52.7	2	9	90	0.00	30.044 
09:00	64.7	64.7	64.7	66	53.1	2	5	90	0.00	30.044 
09:05	65.2	65.2	65.2	67	54.0	2	7	90	0.00	30.046 
09:10	65.6	65.6	65.6	65	53.5	2	4	112	0.00	30.047 
09:15	66.0	66.0	66.0	63	53.0	2	5	112	0.00	30.049 
09:20	66.4	66.4	66.4	65	54.3	2	4	90	0.00	30.049 
09:25	66.8	66.8	66.8	65	54.6	3	6	112	0.00	30.047 
09:30	66.8	66.8	66.8	63	53.8	3	6	112	0.00	30.044 
09:35	67.1	67.1	67.1	63	54.1	2	5	112	0.00	30.043 
09:40	67.6	67.6	67.6	63	54.5	2	5	112	0.00	30.043 
09:45	67.6	67.6	67.6	62	54.1	3	9	90	0.00	30.043 
09:50	67.6	67.6	67.6	63	54.5	2	7	90	0.00	30.043 
09:55	67.8	67.8	67.8	64	55.2	3	5	112	0.00	30.044 
10:00	67.6	67.6	67.6	62	54.1	3	7	90	0.00	30.043 
10:05	67.6	67.6	67.6	64	55.0	2	7	90	0.00	30.042 
10:10	67.9	67.9	67.9	63	54.8	2	5	90	0.00	30.042 
10:15	68.3	68.3	68.3	65	56.1	2	6	112	0.00	30.040 
10:20	69.1	69.1	69.1	64	56.4	2	4	112	0.00	30.038 
10:25	69.4	69.4	69.4	64	56.7	2	7	90	0.00	30.037 
10:30	69.6	69.6	69.6	62	56.0	2	5	112	0.00	30.036 
10:35	69.6	69.6	69.6	65	57.3	2	5	112	0.00	30.032 
10:40	69.9	69.9	69.9	59	54.9	2	6	112	0.00	30.033 
10:45	70.1	70.1	70.1	62	56.5	2	9	112	0.00	30.030 
10:50	69.9	69.9	69.9	61	55.8	3	6	112	0.00	30.029 
10:55	69.9	69.9	69.9	57	54.0	3	7	112	0.00	30.031 
11:00	70.1	70.1	70.1	58	54.6	3	6	112	0.00	30.029 
11:05	70.1	70.1	70.1	56	53.7	4	9	112	0.00	30.029 
11:10	70.1	70.1	70.1	56	53.7	4	8	90	0.00	30.032 
11:15	70.4	70.4	70.4	54	52.9	4	7	90	0.00	30.031 
11:20	70.6	70.6	70.6	59	55.6	2	10	90	0.00	30.029 
11:25	71.1	71.1	71.1	58	55.6	2	6	90	0.00	30.026 
11:30	71.6	71.6	71.6	58	56.0	1	4	90	0.00	30.025 
11:35	72.1	72.1	72.1	58	56.5	2	6	112	0.00	30.024 
11:40	72.0	72.0	72.0	55	54.9	3	7	90	0.00	30.025 
11:45	72.3	72.3	72.3	58	56.7	1	4	90	0.00	30.023 
11:50	72.1	72.1	72.1	52	53.5	2	10	90	0.00	30.024 
11:55	72.0	72.0	72.0	54	54.4	3	7	112	0.00	30.023 
12:00	71.8	71.8	71.8	55	54.7	3	7	90	0.00	30.023 
12:05	72.0	72.0	72.0	53	53.9	3	7	90	0.00	30.024 
12:10	71.8	71.8	71.8	53	53.7	2	9	90	0.00	30.022 
12:15	72.1	72.1	72.1	51	53.0	2	5	112	0.00	30.021 
12:20	72.5	72.5	72.5	54	54.9	2	4	112	0.00	30.019 
12:25	72.7	72.7	72.7	51	53.5	2	7	112	0.00	30.019 
12:30	72.7	72.7	72.7	55	55.6	2	6	112	0.00	30.017 
12:35	73.2	73.2	73.2	52	54.5	2	5	112	0.00	30.012 
12:40	73.2	73.2	73.2	52	54.5	3	7	112	0.00	30.012 
12:45	73.2	73.2	73.2	54	55.5	2	6	90	0.00	30.010 
12:50	73.3	73.3	73.3	52	54.6	2	9	135	0.00	30.009 
12:55	73.5	73.5	73.5	51	54.2	2	5	90	0.00	30.006 
13:00	73.7	73.7	73.7	49	53.3	2	6	112	0.00	30.007 
13:05	74.0	74.0	74.0	54	56.3	2	4	90	0.00	30.005 
13:10	74.4	74.4	74.4	50	54.5	3	7	112	0.00	30.006 
13:15	74.0	74.0	74.0	53	55.8	2	5	112	0.00	30.004 
13:20	74.0	74.0	74.0	50	54.2	1	5	90	0.00	30.002 
13:25	74.4	74.4	74.4	53	56.1	2	6	90	0.00	30.003 
13:30	74.9	74.9	74.9	49	54.4	2	7	68	0.00	29.997 
13:35	75.1	75.1	77.7	51	55.7	2	7	90	0.00	29.995 
13:40	74.9	74.9	74.9	52	56.1	2	8	90	0.00	29.996 
13:45	75.1	75.1	77.7	49	54.6	0	2	90	0.00	29.993 
13:50	74.7	74.7	74.7	50	54.8	2	4	112	0.00	29.992 
13:55	74.9	74.9	74.9	50	55.0	1	5	112	0.00	29.992 
14:00	74.9	74.9	74.9	52	56.1	2	7	90	0.00	29.993 
14:05	74.4	74.4	74.4	50	54.5	2	9	112	0.00	29.993 
14:10	74.2	74.2	74.2	50	54.3	2	5	112	0.00	29.991 
14:15	74.2	74.2	74.2	52	55.4	1	5	90	0.00	29.991 
14:20	74.6	74.6	74.6	46	52.4	2	5	112	0.00	29.988 
14:25	75.1	75.1	77.7	51	55.7	3	8	112	0.00	29.985 
14:30	75.3	75.3	77.7	47	53.7	3	6	90	0.00	29.985 
14:35	75.1	75.1	77.6	52	56.3	2	9	112	0.00	29.984 
14:40	75.1	75.1	77.7	51	55.7	1	5	45	0.00	29.985 
14:45	75.6	75.6	77.9	50	55.6	1	3	112	0.00	29.980 
14:50	75.3	75.3	77.7	49	54.8	1	7	90	0.00	29.981 
14:55	75.3	75.3	77.7	47	53.7	2	6	112	0.00	29.982 
15:00	75.3	75.3	77.7	47	53.7	2	5	90	0.00	29.983 
15:05	75.4	75.4	77.7	44	52.0	2	5	112	0.00	29.981 
15:10	76.0	76.0	78.0	46	53.7	1	4	90	0.00	29.979 
15:15	76.1	76.1	78.1	48	55.0	2	7	112	0.00	29.979 
15:20	75.8	75.8	78.0	48	54.7	2	4	90	0.00	29.977 
15:25	75.6	75.6	77.8	45	52.7	1	4	90	0.00	29.976 
15:30	75.8	75.8	78.0	48	54.7	1	5	112	0.00	29.975 
15:35	75.4	75.4	77.8	46	53.2	2	4	90	0.00	29.974 
15:40	75.8	75.8	78.0	48	54.7	2	7	90	0.00	29.974 
15:45	75.4	75.4	77.8	48	54.3	4	9	90	0.00	29.975 
15:50	75.1	75.1	77.7	48	54.1	3	9	112	0.00	29.975 
15:55	74.9	74.9	74.9	50	55.0	2	5	112	0.00	29.974 
16:00	75.1	75.1	77.7	48	54.1	3	6	112	0.00	29.972 
16:05	75.6	75.6	77.9	48	54.5	2	6	112	0.00	29.973 
16:10	76.3	76.3	78.2	48	55.1	1	3	112	0.00	29.969 
16:15	76.1	76.1	78.0	45	53.2	3	5	112	0.00	29.966 
16:20	75.6	75.6	77.8	45	52.7	3	7	112	0.00	29.969 
16:25	75.8	75.8	78.0	49	55.3	1	4	90	0.00	29.968 
16:30	75.8	75.8	77.9	46	53.5	3	6	112	0.00	29.967 
16:35	75.8	75.8	77.9	46	53.5	1	5	112	0.00	29.963 
16:40	75.8	75.8	77.9	47	54.1	2	6	90	0.00	29.964 
16:45	75.4	75.4	77.8	46	53.2	1	5	90	0.00	29.962 
16:50	75.3	75.3	77.7	46	53.1	2	4	90	0.00	29.962 
16:55	75.3	75.3	77.7	47	53.7	2	4	90	0.00	29.962 
17:00	75.1	75.1	77.7	47	53.5	1	4	90	0.00	29.961 
17:05	75.3	75.3	77.7	49	54.8	1	3	112	0.00	29.959 
17:10	75.3	75.3	77.7	48	54.2	2	5	112	0.00	29.960 
17:15	75.1	75.1	77.7	48	54.1	3	5	90	0.00	29.960 
17:20	74.7	74.7	74.7	47	53.1	2	6	90	0.00	29.961 
17:25	74.0	74.0	74.0	50	54.2	2	4	112	0.00	29.962 
17:30	73.5	73.5	73.5	52	54.8	1	3	112	0.00	29.964 
17:35	73.0	73.0	73.0	52	54.3	0	1	112	0.00	29.963 
17:40	72.8	72.8	72.8	50	53.1	0	1	112	0.00	29.962 
17:45	73.3	73.3	73.3	52	54.6	1	3	112	0.00	29.962 
17:50	74.0	74.0	74.0	54	56.3	1	9	90	0.00	29.961 
17:55	74.6	74.6	74.6	52	55.8	1	4	112	0.00	29.961 
18:00	74.6	74.6	74.6	50	54.7	2	5	90	0.00	29.959 
18:05	73.9	73.9	73.9	53	55.7	1	5	90	0.00	29.960 
18:10	73.3	73.3	73.3	54	55.6	1	3	90	0.00	29.959 
18:15	73.2	73.2	73.2	54	55.5	1	3	90	0.00	29.957 
18:20	73.0	73.0	73.0	53	54.8	1	4	90	0.00	29.959 
18:25	73.0	73.0	73.0	55	55.9	1	2	112	0.00	29.959 
18:30	73.0	73.0	73.0	53	54.8	2	5	112	0.00	29.960 
18:35	73.0	73.0	73.0	52	54.3	2	6	90	0.00	29.960 
18:40	72.8	72.8	72.8	54	55.2	2	6	90	0.00	29.960 
18:45	72.7	72.7	72.7	53	54.6	2	5	112	0.00	29.961 
18:50	72.3	72.3	72.3	52	53.7	1	3	112	0.00	29.961 
18:55	72.1	72.1	72.1	54	54.5	0	2	112	0.00	29.963 
19:00	72.0	72.0	72.0	55	54.9	0	1	112	0.00	29.963 
19:05	71.8	71.8	71.8	56	55.2	0	1	112	0.00	29.960 
19:10	71.8	71.8	71.8	57	55.7	0	1	112	0.00	29.959 
19:15	71.6	71.6	71.6	56	55.1	0	3	112	0.00	29.959 
19:20	71.5	71.5	71.5	58	55.9	0	2	112	0.00	29.959 
19:25	71.3	71.3	71.3	58	55.7	0	3	112	0.00	29.959 
19:30	71.3	71.3	71.3	58	55.7	0	2	112	0.00	29.960 
19:35	71.1	71.1	71.1	59	56.0	1	2	112	0.00	29.959 
19:40	70.9	70.9	70.9	59	55.8	0	2	112	0.00	29.959 
19:45	70.8	70.8	70.8	60	56.2	0	2	112	0.00	29.960 
19:50	70.4	70.4	70.4	61	56.3	1	3	90	0.00	29.960 
19:55	70.3	70.3	70.3	61	56.2	0	1	90	0.00	29.961 
20:00	69.9	69.9	69.9	61	55.8	0	4	112	0.00	29.961 
20:05	69.6	69.6	69.6	62	56.0	0	1	112	0.00	29.960 
20:10	69.4	69.4	69.4	63	56.2	0	1	112	0.00	29.960 
20:15	69.1	69.1	69.1	63	56.0	0	2	90	0.00	29.961 
20:20	68.8	68.8	68.8	65	56.5	0	1	90	0.00	29.962 
20:25	68.4	68.4	68.4	66	56.6	0	1	90	0.00	29.968 
20:30	68.1	68.1	68.1	66	56.3	0	1	90	0.00	29.970 
20:35	67.8	67.8	67.8	67	56.4	0	1	90	0.00	29.972 
20:40	67.6	67.6	67.6	67	56.2	0	2	90	0.00	29.973 
20:45	67.4	67.4	67.4	68	56.5	0	2	90	0.00	29.975 
20:50	67.4	67.4	67.4	69	56.9	0	1	90	0.00	29.976 
20:55	67.4	67.4	67.4	68	56.5	0	1	90	0.00	29.976 
21:00	67.4	67.4	67.4	69	56.9	0	1	90	0.00	29.977 
21:05	67.4	67.4	67.4	69	56.9	0	2	90	0.00	29.976 
21:10	67.3	67.3	67.3	69	56.8	0	1	90	0.00	29.979 
21:15	67.1	67.1	67.1	70	57.0	0	1	90	0.00	29.981 
21:20	66.8	66.8	66.8	70	56.7	0	2	90	0.00	29.984 
21:25	66.4	66.4	66.4	71	56.7	0	1	90	0.00	29.985 
21:30	66.1	66.1	66.1	72	56.8	0	0	---	0.00	29.988 
21:35	66.0	66.0	66.0	73	57.1	0	1	90	0.00	29.987 
21:40	65.8	65.8	65.8	73	56.9	0	2	90	0.00	29.989 
21:45	65.6	65.6	65.6	73	56.7	0	2	90	0.00	29.988 
21:50	65.6	65.6	65.6	73	56.7	0	2	90	0.00	29.990 
21:55	65.5	65.5	65.5	74	57.0	0	2	90	0.00	29.990 
22:00	65.3	65.3	65.3	74	56.8	0	2	90	0.00	29.992 
22:05	65.0	65.0	65.0	74	56.5	0	2	90	0.00	29.991 
22:10	64.8	64.8	64.8	74	56.3	0	1	90	0.00	29.991 
22:15	64.7	64.7	64.7	75	56.6	0	2	90	0.00	29.992 
22:20	64.5	64.5	64.5	75	56.4	0	2	90	0.00	29.992 
22:25	64.3	64.3	64.3	76	56.6	0	1	90	0.00	29.991 
22:30	64.0	64.0	64.0	77	56.6	0	1	90	0.00	29.990 
22:35	63.9	63.9	63.9	77	56.5	0	1	90	0.00	29.990 
22:40	63.7	63.7	63.7	78	56.7	0	1	90	0.00	29.990 
22:45	63.4	63.4	63.4	78	56.4	0	1	90	0.00	29.990 
22:50	63.2	63.2	63.2	79	56.6	0	1	90	0.00	29.992 
22:55	63.1	63.1	63.1	79	56.5	0	1	90	0.00	29.991 
23:00	62.9	62.9	62.9	79	56.3	0	1	90	0.00	29.991 
23:05	62.6	62.6	62.6	79	56.0	0	1	90	0.00	29.989 
23:10	62.6	62.6	62.6	79	56.0	0	1	90	0.00	29.990 
23:15	62.4	62.4	62.4	78	55.4	0	1	90	0.00	29.992 
23:20	62.3	62.3	62.3	78	55.3	0	1	90	0.00	29.992 
23:25	62.1	62.1	62.1	79	55.5	0	1	90	0.00	29.991 
23:30	62.0	62.0	62.0	79	55.4	0	0	---	0.00	29.994 
23:35	61.6	61.6	61.6	80	55.4	0	0	---	0.00	29.992 
23:40	61.3	61.3	61.3	81	55.4	0	0	---	0.00	29.993 
23:45	61.0	61.0	61.0	81	55.1	0	0	---	0.00	29.995 
23:50	60.7	60.7	60.7	81	54.8	0	0	---	0.00	29.996 
23:55	60.4	60.4	60.4	82	54.9	0	0	---	0.00	29.995 

CoCoRaHS
IN-AL-39
A2 Web Hosting
Creative Commons License
GoDaddy
Look for:

loaded 2017-10-19 12:34:01 • last modified 2010-11-18 10:43:29
Privacy PolicyDisclaimer
• wx.awcolley.com is powered by PmWiki v.2002016 •
• all content (unless otherwise noted) © 2017 A W Colley